Time;durP1;ratioP1;P1;durP2;ratioP2;P2;SDS_P1;SDS_P2;PMS_P1;PMS_P2;Temp;Humidity;BMP_temperature;BMP_pressure;BME280_temperature;BME280_humidity;BME280_pressure;Samples;Min_cycle;Max_cycle;Signal;HPM_P1;HPM_P2
2022/09/12 00:00:43;;;;;;;8.80;6.35;;;;;;;12.45;53.33;100039.31;5112921;28;20487;-46
2022/09/12 00:03:08;;;;;;;11.98;6.22;;;;;;;12.43;52.79;100042.13;5112364;28;20092;-48
2022/09/12 00:05:43;;;;;;;12.65;6.50;;;;;;;12.43;52.97;100047.47;5111884;28;20546;-47
2022/09/12 00:08:10;;;;;;;10.25;5.80;;;;;;;12.31;53.42;100040.50;5112045;28;20036;-50
2022/09/12 00:10:40;;;;;;;10.68;6.93;;;;;;;12.24;53.94;100034.78;5112284;28;20126;-47
2022/09/12 00:13:07;;;;;;;10.75;6.03;;;;;;;12.20;54.66;100046.75;5110985;28;20081;-51
2022/09/12 00:15:40;;;;;;;10.35;6.45;;;;;;;12.16;55.53;100030.06;5112035;28;20036;-50
2022/09/12 00:18:09;;;;;;;9.15;6.60;;;;;;;12.19;54.72;100034.31;5112229;28;20046;-49
2022/09/12 00:20:34;;;;;;;9.60;5.97;;;;;;;12.15;55.04;100033.72;5111968;28;20028;-50
2022/09/12 00:23:00;;;;;;;8.95;5.68;;;;;;;12.17;55.27;100031.75;5111725;28;20036;-48
2022/09/12 00:25:26;;;;;;;9.52;5.95;;;;;;;12.10;55.54;100038.63;5111884;28;20019;-48
2022/09/12 00:27:52;;;;;;;10.70;6.57;;;;;;;12.04;56.04;100025.69;5112186;28;20476;-49
2022/09/12 00:30:17;;;;;;;8.13;6.38;;;;;;;12.03;56.34;100024.00;5111551;28;20027;-49
2022/09/12 00:32:43;;;;;;;7.63;5.63;;;;;;;11.83;56.89;99994.31;5111976;28;20528;-52
2022/09/12 00:35:08;;;;;;;9.70;6.00;;;;;;;11.91;57.39;100015.97;5111651;28;20505;-50
2022/09/12 00:37:34;;;;;;;8.82;6.00;;;;;;;11.81;58.02;99998.91;5111625;28;20020;-50
2022/09/12 00:39:59;;;;;;;8.93;5.72;;;;;;;11.68;57.83;99988.38;5111728;28;20031;-53
2022/09/12 00:42:25;;;;;;;9.15;5.20;;;;;;;11.82;58.36;100016.75;5111653;28;20039;-49
2022/09/12 00:44:51;;;;;;;7.80;4.90;;;;;;;11.79;58.25;100006.25;5111677;28;20080;-51
2022/09/12 00:47:22;;;;;;;9.90;5.35;;;;;;;11.78;58.71;100001.88;5112000;28;20036;-48
2022/09/12 00:50:04;;;;;;;8.63;4.75;;;;;;;11.87;58.40;100017.22;5111587;28;20073;-50
2022/09/12 00:52:54;;;;;;;6.03;4.80;;;;;;;11.85;58.65;100002.22;5111464;28;20118;-48
2022/09/12 00:55:38;;;;;;;7.38;4.32;;;;;;;11.67;57.60;99969.72;5111542;28;20031;-47
2022/09/12 00:58:09;;;;;;;6.97;4.90;;;;;;;11.77;59.26;100008.22;5111679;28;20038;-49
2022/09/12 01:00:35;;;;;;;8.13;4.90;;;;;;;11.53;58.96;99978.91;5111230;28;20019;-48
2022/09/12 01:03:04;;;;;;;6.60;4.90;;;;;;;11.67;59.11;100008.13;5111331;28;20024;-48
2022/09/12 01:05:34;;;;;;;7.18;5.00;;;;;;;11.70;59.03;100004.34;5111189;28;20051;-46
2022/09/12 01:08:02;;;;;;;7.82;4.93;;;;;;;11.67;59.10;100005.44;5111015;28;20386;-48
2022/09/12 01:10:27;;;;;;;6.18;5.00;;;;;;;11.62;59.82;99988.88;5111272;28;20443;-49
2022/09/12 01:12:52;;;;;;;7.43;4.97;;;;;;;11.66;59.47;99990.31;5110487;28;20054;-49
2022/09/12 01:15:18;;;;;;;7.18;5.80;;;;;;;11.67;59.94;100000.06;5111298;28;20047;-46
2022/09/12 01:17:49;;;;;;;8.85;5.75;;;;;;;11.69;60.10;99994.59;5111468;28;20353;-49
2022/09/12 01:20:53;;;;;;;8.38;5.95;;;;;;;11.78;60.08;99993.81;5111408;28;20433;-52
2022/09/12 01:23:39;;;;;;;9.13;5.63;;;;;;;11.79;60.15;99990.16;5111500;28;20038;-51
2022/09/12 01:26:31;;;;;;;9.20;5.72;;;;;;;11.82;59.75;100000.66;5111346;28;20043;-49
2022/09/12 01:29:19;;;;;;;7.80;5.80;;;;;;;11.80;59.85;99989.19;5110765;28;20028;-51
2022/09/12 01:31:58;;;;;;;8.07;6.32;;;;;;;11.75;59.66;99994.06;5111051;28;20426;-49
2022/09/12 01:34:42;;;;;;;9.00;6.45;;;;;;;11.68;59.80;99992.88;5110975;28;20024;-49
2022/09/12 01:37:32;;;;;;;9.05;5.47;;;;;;;11.74;59.65;99990.56;5110971;28;20031;-52
2022/09/12 01:40:03;;;;;;;11.07;6.80;;;;;;;11.62;60.57;99997.78;5110915;28;20049;-54
2022/09/12 01:42:37;;;;;;;8.32;6.32;;;;;;;11.68;60.07;99993.72;5110879;28;20092;-50
2022/09/12 01:45:23;;;;;;;9.05;6.63;;;;;;;11.74;60.00;99989.69;5111239;28;20031;-47
2022/09/12 01:47:52;;;;;;;;;;;;;;;11.99;57.95;99996.56;5112580;28;20077;-48
2022/09/12 01:50:21;;;;;;;11.48;6.65;;;;;;;11.80;59.81;99991.03;5115292;28;19912;-49
2022/09/12 01:52:53;;;;;;;11.98;6.97;;;;;;;11.75;59.74;99994.06;5114978;28;20024;-49
2022/09/12 01:55:31;;;;;;;11.82;7.18;;;;;;;11.76;59.68;99990.41;5113994;28;20024;-50
2022/09/12 01:58:04;;;;;;;11.88;7.13;;;;;;;11.72;59.54;99997.00;5114940;28;20035;-51
2022/09/12 02:00:33;;;;;;;8.20;6.50;;;;;;;11.47;59.89;99953.47;5114467;28;20028;-47
2022/09/12 02:03:03;;;;;;;13.05;6.72;;;;;;;11.65;59.95;99991.31;5114420;28;20046;-54
2022/09/12 02:05:41;;;;;;;10.43;6.63;;;;;;;11.69;60.04;99984.69;5114126;27;20472;-46
2022/09/12 02:08:16;;;;;;;11.65;6.60;;;;;;;11.71;59.94;99988.13;5114575;28;20099;-47
2022/09/12 02:10:48;;;;;;;11.48;7.28;;;;;;;11.72;59.78;99991.66;5114468;28;20139;-47
2022/09/12 02:13:27;;;;;;;11.95;7.43;;;;;;;11.76;59.46;99987.72;5114662;28;20027;-47
2022/09/12 02:15:58;;;;;;;10.20;7.00;;;;;;;11.60;60.13;99986.34;5114431;28;20135;-51
2022/09/12 02:18:27;;;;;;;9.38;6.72;;;;;;;11.60;60.42;99998.88;5114368;28;20110;-48
2022/09/12 02:20:54;;;;;;;9.77;5.95;;;;;;;11.58;60.51;99990.97;5114605;28;20466;-56
2022/09/12 02:23:25;;;;;;;7.63;6.22;;;;;;;11.62;60.29;99988.88;5114871;28;20031;-51
2022/09/12 02:25:56;;;;;;;9.20;6.03;;;;;;;11.55;60.66;99985.84;5114247;28;20042;-48
2022/09/12 02:28:36;;;;;;;9.48;6.25;;;;;;;11.70;60.35;99977.53;5114734;28;20024;-52
2022/09/12 02:31:26;;;;;;;10.70;6.60;;;;;;;11.75;60.34;99984.22;5114319;28;20493;-47
2022/09/12 02:34:08;;;;;;;8.18;6.05;;;;;;;11.72;60.02;99983.59;5114423;28;20030;-48
2022/09/12 02:37:00;;;;;;;9.13;6.20;;;;;;;11.72;59.95;99984.47;5112594;28;20491;-52
2022/09/12 02:39:25;;;;;;;9.98;6.50;;;;;;;11.62;60.09;99980.84;5114341;28;20050;-50
2022/09/12 02:41:54;;;;;;;10.45;6.05;;;;;;;11.55;60.25;99977.81;5114738;28;20426;-53
2022/09/12 02:44:20;;;;;;;10.57;6.72;;;;;;;11.54;61.00;99978.78;5114466;28;20569;-52
2022/09/12 02:46:51;;;;;;;10.32;6.18;;;;;;;11.59;61.03;99984.63;5113557;28;20379;-49
2022/09/12 02:49:16;;;;;;;9.73;6.47;;;;;;;11.59;60.87;99973.03;5113946;28;20027;-50
2022/09/12 02:51:43;;;;;;;12.30;7.13;;;;;;;11.64;60.34;99981.56;5114150;28;20528;-47
2022/09/12 02:54:10;;;;;;;15.90;7.75;;;;;;;11.61;60.38;99977.31;5113609;28;20107;-48
2022/09/12 02:56:41;;;;;;;11.48;7.53;;;;;;;11.66;60.73;99989.50;5113614;28;20070;-47
2022/09/12 02:59:09;;;;;;;12.50;7.57;;;;;;;11.61;60.53;99980.00;5113344;28;20375;-47
2022/09/12 03:01:53;;;;;;;15.35;8.55;;;;;;;11.77;59.96;99992.97;5113555;28;20028;-47
2022/09/12 03:04:30;;;;;;;14.07;8.05;;;;;;;11.65;60.14;99983.25;5113391;28;20031;-48
2022/09/12 03:06:58;;;;;;;16.25;8.50;;;;;;;11.62;60.59;99984.38;5113273;28;20085;-50
2022/09/12 03:10:09;;;;;;;14.98;8.73;;;;;;;11.61;60.74;99992.53;5113425;28;20480;-49
2022/09/12 03:13:00;;;;;;;13.57;8.70;;;;;;;11.60;61.41;99986.34;5090730;28;20056;-49
2022/09/12 03:15:53;;;;;;;11.77;7.93;;;;;;;11.66;60.57;99989.50;5111563;28;20047;-54
2022/09/12 03:18:26;;;;;;;15.43;7.72;;;;;;;11.47;62.21;99983.81;5113277;28;20032;-52
2022/09/12 03:21:32;;;;;;;14.52;7.10;;;;;;;11.61;61.04;99981.81;5113496;28;20582;-48
2022/09/12 03:24:06;;;;;;;12.07;8.23;;;;;;;11.50;61.77;99985.38;5113399;28;20035;-50
2022/09/12 03:26:39;;;;;;;17.05;8.60;;;;;;;11.40;61.33;99971.88;5113151;28;20063;-48
2022/09/12 03:29:06;;;;;;;11.60;8.60;;;;;;;11.44;62.12;99996.63;5113207;28;20071;-50
2022/09/12 03:31:32;;;;;;;12.27;8.50;;;;;;;11.19;62.86;99974.47;5112788;28;20035;-48
2022/09/12 03:33:58;;;;;;;14.85;10.10;;;;;;;11.32;62.35;99993.94;5112667;28;20028;-50
2022/09/12 03:36:26;;;;;;;15.73;9.50;;;;;;;11.34;62.31;100002.75;5113331;28;20051;-46
2022/09/12 03:38:52;;;;;;;14.77;9.55;;;;;;;11.35;62.08;99998.22;5113384;28;20402;-47
2022/09/12 03:41:19;;;;;;;14.77;9.57;;;;;;;11.42;61.74;100001.25;5113036;28;20091;-47
2022/09/12 03:43:45;;;;;;;14.80;9.52;;;;;;;11.32;62.17;99996.63;5113460;28;20066;-46
2022/09/12 03:46:12;;;;;;;16.25;9.88;;;;;;;11.32;61.70;99999.28;5112993;28;20043;-48
2022/09/12 03:48:38;;;;;;;14.82;10.07;;;;;;;11.38;61.62;100002.47;5112501;28;20383;-48
2022/09/12 03:51:07;;;;;;;16.80;9.80;;;;;;;11.45;61.47;100001.00;5112581;28;20111;-49
2022/09/12 03:53:33;;;;;;;16.58;9.73;;;;;;;11.35;61.65;99992.84;5112692;28;20464;-51
2022/09/12 03:55:58;;;;;;;15.30;9.93;;;;;;;11.25;62.29;99992.75;5112774;28;20089;-52
2022/09/12 03:58:28;;;;;;;16.88;10.27;;;;;;;11.43;61.71;99986.88;5112785;28;20383;-49
2022/09/12 04:00:54;;;;;;;16.83;9.38;;;;;;;11.13;62.38;99951.72;5111914;28;20039;-49
2022/09/12 04:03:19;;;;;;;15.95;10.23;;;;;;;11.36;62.33;99981.16;5112491;28;20054;-49
2022/09/12 04:05:46;;;;;;;15.93;10.45;;;;;;;11.40;62.25;99981.75;5112231;28;20377;-51
2022/09/12 04:08:12;;;;;;;16.63;10.93;;;;;;;11.42;61.90;99987.84;5108919;28;20467;-47
2022/09/12 04:10:37;;;;;;;16.50;10.32;;;;;;;11.46;61.76;99986.59;5108936;28;20080;-47
2022/09/12 04:13:03;;;;;;;15.48;10.38;;;;;;;11.47;61.90;99983.81;5110637;28;20020;-49
2022/09/12 04:15:28;;;;;;;14.80;10.43;;;;;;;11.49;62.18;99986.34;5110413;28;20144;-57
2022/09/12 04:17:54;;;;;;;15.63;10.95;;;;;;;11.55;62.32;99985.84;5109150;28;20054;-51
2022/09/12 04:20:19;;;;;;;15.32;10.27;;;;;;;11.70;60.91;99986.44;5109734;28;20356;-54
2022/09/12 04:22:44;;;;;;;15.70;10.23;;;;;;;11.74;61.30;99978.97;5109163;28;20028;-54
2022/09/12 04:25:10;;;;;;;17.25;10.73;;;;;;;11.72;61.25;99986.28;5110742;28;20314;-56
2022/09/12 04:27:36;;;;;;;16.05;10.15;;;;;;;11.65;61.41;99987.78;5111032;28;20031;-54
2022/09/12 04:30:02;;;;;;;13.48;9.30;;;;;;;11.68;60.95;99982.16;5110058;28;20046;-54
2022/09/12 04:32:30;;;;;;;12.65;8.73;;;;;;;11.63;61.65;99990.59;5110170;28;20211;-54
2022/09/12 04:34:56;;;;;;;18.83;9.30;;;;;;;11.60;61.59;99997.06;5110416;28;20519;-56
2022/09/12 04:37:23;;;;;;;12.60;9.35;;;;;;;11.39;62.44;99951.41;5110610;28;20046;-55
2022/09/12 04:39:48;;;;;;;14.57;9.85;;;;;;;11.60;62.36;99994.38;5110371;28;20537;-49
2022/09/12 04:42:14;;;;;;;15.48;9.70;;;;;;;11.64;62.10;99989.59;5109826;28;20452;-51
2022/09/12 04:44:40;;;;;;;16.85;10.65;;;;;;;11.63;62.14;99988.75;5110076;28;20032;-50
2022/09/12 04:47:06;;;;;;;14.63;8.77;;;;;;;11.60;62.28;99993.53;5108734;28;20095;-52
2022/09/12 04:49:32;;;;;;;13.85;9.57;;;;;;;11.51;62.67;99991.59;5110253;28;20383;-50
2022/09/12 04:51:57;;;;;;;14.35;9.10;;;;;;;11.46;63.39;100000.88;5110474;28;20467;-54
2022/09/12 04:54:23;;;;;;;14.75;8.93;;;;;;;11.57;62.93;99991.09;5109455;28;20080;-54
2022/09/12 04:56:50;;;;;;;13.32;8.73;;;;;;;11.52;63.50;99988.78;5110074;28;20042;-52
2022/09/12 04:59:19;;;;;;;15.15;9.55;;;;;;;11.58;63.26;99980.25;5110249;28;20497;-56
2022/09/12 05:01:44;;;;;;;16.67;9.77;;;;;;;11.56;63.46;99986.72;5107309;28;20456;-54
2022/09/12 05:04:12;;;;;;;19.17;10.85;;;;;;;11.62;63.32;99996.91;5110099;28;20042;-53
2022/09/12 05:06:39;;;;;;;19.88;11.13;;;;;;;11.65;63.50;99993.16;5109842;28;20051;-53
2022/09/12 05:09:06;;;;;;;14.00;10.80;;;;;;;11.63;63.27;99982.53;5107447;28;20132;-54
2022/09/12 05:11:37;;;;;;;14.93;10.90;;;;;;;11.75;62.92;100004.81;5109146;28;20046;-54
2022/09/12 05:14:02;;;;;;;16.30;11.35;;;;;;;11.69;63.44;99998.13;5107246;28;20424;-54
2022/09/12 05:16:30;;;;;;;15.25;11.10;;;;;;;11.66;63.39;99989.50;5110214;28;20024;-53
2022/09/12 05:18:57;;;;;;;16.70;10.98;;;;;;;11.78;62.93;100004.53;5110253;28;20039;-53
2022/09/12 05:21:23;;;;;;;16.40;11.30;;;;;;;11.86;62.76;100007.47;5109864;28;20023;-49
2022/09/12 05:23:56;;;;;;;14.73;9.88;;;;;;;11.99;62.12;99995.69;5114100;28;20670;-56
2022/09/12 05:26:22;;;;;;;15.18;10.52;;;;;;;11.88;62.54;99992.09;5114069;28;20027;-53
2022/09/12 05:28:50;;;;;;;15.85;10.75;;;;;;;11.91;62.97;99988.28;5114014;28;20410;-55
2022/09/12 05:31:20;;;;;;;17.77;10.82;;;;;;;12.02;62.40;99992.78;5113768;28;20028;-53
2022/09/12 05:33:48;;;;;;;13.82;9.93;;;;;;;12.05;61.74;99987.16;5111466;28;20634;-58
2022/09/12 05:36:19;;;;;;;15.95;10.00;;;;;;;12.19;62.03;100002.94;5113930;28;20023;-54
2022/09/12 05:38:45;;;;;;;13.60;9.68;;;;;;;12.20;61.84;99985.84;5111337;28;20035;-55
2022/09/12 05:41:13;;;;;;;16.98;10.15;;;;;;;12.33;61.25;99988.34;5113949;28;20471;-55
2022/09/12 05:43:41;;;;;;;15.02;9.43;;;;;;;12.39;60.43;99992.34;5113751;27;20179;-58
2022/09/12 05:46:15;;;;;;;14.20;8.98;;;;;;;12.42;61.10;99991.22;5114836;28;20512;-55
2022/09/12 05:48:42;;;;;;;13.18;9.20;;;;;;;12.38;61.03;99996.00;5115283;28;20482;-54
2022/09/12 05:51:16;;;;;;;10.40;8.65;;;;;;;12.47;60.13;99983.63;5114675;28;20122;-55
2022/09/12 05:53:42;;;;;;;12.38;9.10;;;;;;;12.51;60.45;99989.56;5114759;28;20031;-51
2022/09/12 05:56:13;;;;;;;12.77;8.95;;;;;;;12.42;61.45;99984.03;5114896;28;20031;-52
2022/09/12 05:58:42;;;;;;;13.55;8.15;;;;;;;12.52;60.42;99992.13;5113124;28;20032;-51
2022/09/12 06:01:13;;;;;;;12.35;8.57;;;;;;;12.61;60.00;99987.81;5113144;28;20020;-52
2022/09/12 06:03:50;;;;;;;11.15;8.10;;;;;;;12.52;60.04;99985.91;5113291;28;20345;-52
2022/09/12 06:06:19;;;;;;;14.80;8.60;;;;;;;12.48;60.65;99983.47;5114429;28;20050;-54
2022/09/12 06:08:46;;;;;;;13.38;7.78;;;;;;;12.55;60.12;99996.41;5114304;27;20475;-55
2022/09/12 06:11:14;;;;;;;10.38;7.82;;;;;;;12.55;59.85;99980.28;5114737;28;20104;-54
2022/09/12 06:13:41;;;;;;;10.70;8.00;;;;;;;12.46;60.52;99971.19;5114773;28;20045;-50
2022/09/12 06:16:13;;;;;;;10.82;7.63;;;;;;;12.54;60.33;99979.44;5113079;28;20460;-53
2022/09/12 06:18:39;;;;;;;12.55;8.10;;;;;;;12.54;60.39;99973.19;5114197;28;20036;-52
2022/09/12 06:21:09;;;;;;;10.52;7.60;;;;;;;12.66;59.89;99972.13;5114373;28;20475;-54
2022/09/12 06:23:35;;;;;;;11.45;8.63;;;;;;;12.74;59.63;99969.63;5114387;28;20106;-52
2022/09/12 06:26:03;;;;;;;11.38;8.15;;;;;;;12.78;59.98;99976.47;5114443;28;20027;-57
2022/09/12 06:28:29;;;;;;;10.50;7.82;;;;;;;13.07;59.57;99989.16;5114239;28;20063;-51
2022/09/12 06:31:03;;;;;;;13.00;8.07;;;;;;;13.33;58.74;99980.59;5114305;28;20031;-55
2022/09/12 06:33:30;;;;;;;12.43;7.57;;;;;;;13.47;57.82;99975.81;5114043;28;20111;-53
2022/09/12 06:36:10;;;;;;;14.57;8.57;;;;;;;13.64;56.99;99966.25;5113886;28;20024;-53
2022/09/12 06:38:37;;;;;;;12.02;8.18;;;;;;;13.73;57.09;99977.97;5113838;28;20130;-55
2022/09/12 06:41:05;;;;;;;11.48;7.75;;;;;;;13.80;56.58;99976.44;5114011;28;20059;-60
2022/09/12 06:43:31;;;;;;;12.15;8.00;;;;;;;13.78;56.09;99978.41;5114305;28;20096;-52
2022/09/12 06:45:57;;;;;;;10.68;7.68;;;;;;;13.68;56.89;99983.78;5113584;28;20084;-53
2022/09/12 06:48:22;;;;;;;12.90;8.60;;;;;;;13.66;56.76;99974.16;5113645;27;20036;-52
2022/09/12 06:50:58;;;;;;;16.30;8.68;;;;;;;13.78;56.88;99978.41;5114240;28;20031;-54
2022/09/12 06:53:25;;;;;;;13.43;8.10;;;;;;;13.72;56.69;99982.53;5113894;28;20027;-55
2022/09/12 06:56:05;;;;;;;13.45;8.63;;;;;;;13.58;57.08;99980.22;5114198;28;20031;-55
2022/09/12 06:58:32;;;;;;;12.98;8.30;;;;;;;13.52;57.31;99994.25;5114295;28;20031;-55
2022/09/12 07:01:13;;;;;;;9.52;7.50;;;;;;;13.59;57.14;99990.84;5113860;28;20036;-51
2022/09/12 07:03:39;;;;;;;15.40;8.77;;;;;;;13.18;58.07;99979.25;5113623;27;20471;-53
2022/09/12 07:06:08;;;;;;;11.70;8.88;;;;;;;13.31;57.82;99989.78;5113368;27;20135;-55
2022/09/12 07:08:35;;;;;;;12.48;8.82;;;;;;;13.43;57.55;99974.41;5113612;28;20039;-58
2022/09/12 07:11:10;;;;;;;10.90;8.13;;;;;;;13.63;57.23;99988.75;5113881;28;20031;-55
2022/09/12 07:13:36;;;;;;;10.38;7.57;;;;;;;13.84;56.33;99974.28;5113267;28;20447;-54
2022/09/12 07:16:04;;;;;;;13.40;7.88;;;;;;;14.17;55.42;99982.94;5113531;28;20027;-50
2022/09/12 07:18:30;;;;;;;10.30;7.47;;;;;;;14.41;54.54;100017.47;5113322;28;20039;-55
2022/09/12 07:20:58;;;;;;;9.73;6.95;;;;;;;14.44;53.58;99984.84;5113380;28;20054;-55
2022/09/12 07:23:23;;;;;;;8.48;6.30;;;;;;;14.62;53.34;99993.06;5113569;28;20498;-57
2022/09/12 07:25:56;;;;;;;14.70;7.28;;;;;;;15.02;52.75;99993.81;5113641;28;20063;-56
2022/09/12 07:28:27;;;;;;;10.60;7.15;;;;;;;15.01;52.21;99959.75;5113013;28;20038;-53
2022/09/12 07:30:53;;;;;;;11.25;6.68;;;;;;;15.34;50.79;100008.69;5112932;28;20071;-54
2022/09/12 07:33:20;;;;;;;10.15;6.00;;;;;;;15.26;50.70;100002.31;5112854;28;20070;-54
2022/09/12 07:35:46;;;;;;;9.98;5.60;;;;;;;15.21;50.42;100006.31;5113013;28;20455;-54
2022/09/12 07:38:11;;;;;;;7.47;5.30;;;;;;;15.18;50.71;100003.94;5113059;28;20465;-55
2022/09/12 07:40:37;;;;;;;10.50;5.68;;;;;;;14.96;51.37;99999.78;5112815;28;20036;-56
2022/09/12 07:43:02;;;;;;;7.95;5.45;;;;;;;14.77;51.78;100012.34;5113370;28;20111;-56
2022/09/12 07:45:28;;;;;;;8.07;5.63;;;;;;;14.81;51.85;99999.41;5093294;28;20080;-50
2022/09/12 07:47:54;;;;;;;11.13;6.22;;;;;;;14.42;52.78;99994.09;5112636;28;20049;-56
2022/09/12 07:50:19;;;;;;;6.32;5.30;;;;;;;14.38;52.64;100008.84;5112607;28;20070;-56
2022/09/12 07:52:45;;;;;;;10.75;5.82;;;;;;;14.23;53.41;100005.72;5112696;28;20027;-54
2022/09/12 07:55:10;;;;;;;9.38;5.32;;;;;;;14.25;53.54;100010.00;5112376;28;20032;-57
2022/09/12 07:57:36;;;;;;;7.65;5.00;;;;;;;14.19;53.41;99997.09;5112713;28;20034;-61
2022/09/12 08:00:04;;;;;;;8.57;5.82;;;;;;;14.07;54.15;100020.63;5112935;28;20108;-57
2022/09/12 08:02:30;;;;;;;8.02;5.45;;;;;;;14.07;53.92;100015.25;5112103;28;20118;-55
2022/09/12 08:04:55;;;;;;;8.82;5.85;;;;;;;14.01;54.46;100013.13;5112101;28;20127;-55
2022/09/12 08:07:21;;;;;;;6.72;5.63;;;;;;;14.16;54.42;100005.47;5112232;28;20071;-56
2022/09/12 08:09:47;;;;;;;8.27;6.15;;;;;;;14.41;53.70;99995.94;5112386;28;20460;-54
2022/09/12 08:12:12;;;;;;;8.07;6.22;;;;;;;14.59;52.87;99998.75;5112096;28;20043;-57
2022/09/12 08:14:38;;;;;;;9.27;6.38;;;;;;;14.74;52.49;100018.03;5111965;28;20023;-56
2022/09/12 08:17:04;;;;;;;7.28;5.95;;;;;;;14.60;52.75;100015.75;5112685;28;20027;-52
2022/09/12 08:19:30;;;;;;;8.48;6.00;;;;;;;14.51;52.96;100014.75;5112131;28;20028;-54
2022/09/12 08:21:56;;;;;;;11.55;6.57;;;;;;;14.43;53.03;100010.09;5111985;28;20065;-54
2022/09/12 08:24:21;;;;;;;9.30;6.93;;;;;;;14.38;53.77;100016.94;5111625;28;20082;-56
2022/09/12 08:26:46;;;;;;;9.85;6.53;;;;;;;14.43;53.68;100026.25;5111837;28;20032;-53
2022/09/12 08:29:12;;;;;;;8.85;6.43;;;;;;;14.38;53.08;100017.78;5111855;28;20030;-55
2022/09/12 08:31:37;;;;;;;9.32;7.00;;;;;;;14.24;53.36;100018.22;5111951;28;20613;-54
2022/09/12 08:34:04;;;;;;;14.20;7.60;;;;;;;14.15;53.78;100011.84;5111596;28;20076;-50
2022/09/12 08:36:30;;;;;;;13.27;7.60;;;;;;;14.20;53.93;100013.09;5111439;28;20023;-53
2022/09/12 08:39:01;;;;;;;15.75;8.30;;;;;;;14.42;53.18;100038.03;5111453;28;20039;-55
2022/09/12 08:41:37;;;;;;;10.85;8.15;;;;;;;14.11;53.55;99989.75;5111350;28;20129;-50
2022/09/12 08:44:08;;;;;;;;;;;;;;;14.61;52.37;100014.75;5111751;28;20068;-52
2022/09/12 08:47:06;;;;;;;17.00;9.15;;;;;;;14.47;53.05;100016.06;5111843;28;19911;-56
2022/09/12 08:49:47;;;;;;;15.85;9.20;;;;;;;14.39;53.43;100010.56;5085016;28;20039;-54
2022/09/12 08:52:38;;;;;;;16.10;9.88;;;;;;;14.47;53.58;100026.84;5111378;28;20551;-57
2022/09/12 08:55:05;;;;;;;17.35;10.07;;;;;;;14.49;53.27;100014.94;5111589;28;20121;-54
2022/09/12 08:57:32;;;;;;;18.35;11.45;;;;;;;14.49;53.36;100014.94;5111221;28;20368;-52
2022/09/12 08:59:58;;;;;;;18.35;10.50;;;;;;;14.52;52.90;99978.75;5111636;28;20066;-55
2022/09/12 09:02:33;;;;;;;17.25;10.55;;;;;;;14.82;52.71;100002.94;5110043;28;20111;-56
2022/09/12 09:05:05;;;;;;;14.90;10.23;;;;;;;15.12;51.40;100003.69;5110938;28;20051;-55
2022/09/12 09:07:34;;;;;;;16.17;11.13;;;;;;;15.26;51.05;100000.50;5111052;28;20048;-55
2022/09/12 09:10:06;;;;;;;16.55;12.13;;;;;;;15.45;50.36;99994.13;5110886;28;20047;-54
2022/09/12 09:13:05;;;;;;;19.55;12.32;;;;;;;15.72;50.14;99994.25;5110764;28;20057;-55
2022/09/12 09:15:36;;;;;;;20.67;12.30;;;;;;;15.92;48.82;99995.84;5111126;28;20027;-55
2022/09/12 09:18:13;;;;;;;20.67;12.35;;;;;;;15.96;48.66;99995.53;5110858;28;20115;-52
2022/09/12 09:21:08;;;;;;;21.23;12.30;;;;;;;15.96;48.23;99999.06;5109553;28;20058;-56
2022/09/12 09:23:43;;;;;;;20.13;12.60;;;;;;;16.08;48.72;100013.16;5110457;28;20132;-52
2022/09/12 09:26:25;;;;;;;14.27;11.32;;;;;;;16.12;47.07;99984.84;5111191;28;20031;-55
2022/09/12 09:29:05;;;;;;;19.00;11.50;;;;;;;16.07;46.48;99984.47;5110569;28;20107;-54
2022/09/12 09:31:38;;;;;;;17.50;10.55;;;;;;;16.08;46.25;99972.66;5110895;28;20032;-55
2022/09/12 09:34:19;;;;;;;18.67;11.40;;;;;;;16.33;46.22;100000.72;5109856;28;20027;-58
2022/09/12 09:36:51;;;;;;;17.88;10.20;;;;;;;16.28;45.67;99999.50;5095474;28;20720;-53
2022/09/12 09:39:41;;;;;;;20.00;11.70;;;;;;;15.78;46.24;99969.34;5108525;28;20043;-56
2022/09/12 09:42:49;;;;;;;19.13;11.23;;;;;;;16.05;46.28;100008.06;5110372;28;20548;-56
2022/09/12 09:45:18;;;;;;;19.23;10.35;;;;;;;15.78;45.57;99990.94;5109079;28;20372;-55
2022/09/12 09:47:47;;;;;;;17.85;11.18;;;;;;;15.76;45.41;100022.63;5109627;28;20108;-56
2022/09/12 09:50:15;;;;;;;16.70;9.82;;;;;;;15.69;45.65;100008.88;5108843;28;20054;-58
2022/09/12 09:52:41;;;;;;;16.75;11.82;;;;;;;15.52;46.23;99998.91;5108560;28;20462;-53
2022/09/12 09:55:16;;;;;;;21.38;11.65;;;;;;;15.59;46.19;99986.53;5109809;28;20089;-53
2022/09/12 09:57:43;;;;;;;20.13;11.88;;;;;;;15.61;45.85;99992.63;5109159;28;20472;-52
2022/09/12 10:00:21;;;;;;;21.63;12.38;;;;;;;15.81;45.55;99997.88;5110181;28;20498;-54
2022/09/12 10:03:19;;;;;;;18.00;12.32;;;;;;;15.89;45.32;100001.50;5109537;28;20036;-54
2022/09/12 10:05:51;;;;;;;18.48;12.77;;;;;;;15.99;45.31;100004.13;5103304;28;20101;-55
2022/09/12 10:08:21;;;;;;;25.05;12.75;;;;;;;16.16;44.61;100013.25;5109319;28;20039;-57
2022/09/12 10:10:55;;;;;;;23.08;12.52;;;;;;;16.42;43.72;100017.84;5114108;28;20150;-56
2022/09/12 10:13:38;;;;;;;21.38;12.43;;;;;;;16.19;44.46;100001.28;5113686;27;20023;-59
2022/09/12 10:16:17;;;;;;;26.60;13.40;;;;;;;16.24;44.17;99998.13;5112732;28;20035;-58
2022/09/12 10:18:42;;;;;;;19.73;13.52;;;;;;;16.21;44.18;99992.03;5111743;28;20070;-58
2022/09/12 10:21:28;;;;;;;24.88;14.23;;;;;;;16.40;44.23;99992.84;5103960;28;20059;-57
2022/09/12 10:24:20;;;;;;;23.15;14.52;;;;;;;16.61;43.85;99999.72;5114276;28;20677;-57
2022/09/12 10:26:52;;;;;;;22.88;13.95;;;;;;;16.76;43.38;99997.28;5101550;28;20042;-54
2022/09/12 10:29:34;;;;;;;24.67;14.52;;;;;;;16.92;43.21;99988.41;5113159;28;20106;-58
2022/09/12 10:32:07;;;;;;;26.92;14.80;;;;;;;17.10;42.48;100009.13;5113259;28;20128;-57
2022/09/12 10:34:37;;;;;;;22.88;14.80;;;;;;;16.77;42.26;99993.59;5113414;28;20522;-56
2022/09/12 10:37:08;;;;;;;23.58;14.80;;;;;;;16.53;43.08;100003.25;5095197;28;20035;-56
2022/09/12 10:39:37;;;;;;;20.42;14.43;;;;;;;16.32;43.99;99990.94;5111131;28;20026;-58
2022/09/12 10:42:04;;;;;;;24.80;15.38;;;;;;;16.39;44.03;99991.13;5113616;28;20107;-55
2022/09/12 10:44:32;;;;;;;27.33;15.10;;;;;;;16.52;43.61;99984.47;5113367;27;20038;-55
2022/09/12 10:47:18;;;;;;;21.70;14.68;;;;;;;16.54;43.10;99999.53;5111618;28;20035;-55
2022/09/12 10:49:43;;;;;;;23.23;15.43;;;;;;;16.54;43.09;100004.06;5113578;28;20027;-57
2022/09/12 10:52:19;;;;;;;27.33;15.55;;;;;;;16.34;43.61;99988.03;5110707;28;20030;-58
2022/09/12 10:54:44;;;;;;;24.55;15.00;;;;;;;16.21;44.00;99993.84;5093564;28;20448;-54
2022/09/12 10:57:24;;;;;;;20.60;14.65;;;;;;;16.38;43.93;99984.03;5097316;28;20028;-57
2022/09/12 11:00:18;;;;;;;21.63;13.95;;;;;;;16.85;43.04;99993.63;5112364;28;20111;-58
2022/09/12 11:02:57;;;;;;;24.23;15.52;;;;;;;16.91;42.82;99979.44;5112945;28;20035;-58
2022/09/12 11:05:36;;;;;;;24.35;14.90;;;;;;;17.05;42.15;99998.81;5111641;28;20056;-60
2022/09/12 11:08:15;;;;;;;24.05;14.13;;;;;;;16.96;42.19;99980.81;5111729;28;20475;-57
2022/09/12 11:11:46;;;;;;;20.83;14.02;;;;;;;16.89;42.19;100003.09;5111236;27;20546;-55
2022/09/12 11:14:26;;;;;;;22.05;14.15;;;;;;;16.50;42.77;99982.78;5049723;28;20442;-57
2022/09/12 11:17:16;;;;;;;21.20;14.20;;;;;;;16.27;43.44;99987.00;5103520;28;20048;-56
2022/09/12 11:19:53;;;;;;;21.50;14.02;;;;;;;16.09;43.95;99979.75;5112672;28;20087;-59
2022/09/12 11:22:51;;;;;;;23.15;14.05;;;;;;;16.29;43.77;99995.78;5109175;28;20024;-54
2022/09/12 11:25:31;;;;;;;26.55;14.38;;;;;;;16.30;43.28;99975.88;5066402;28;20081;-66
2022/09/12 11:28:15;;;;;;;24.17;14.27;;;;;;;16.05;43.38;99976.53;5108886;28;20020;-56
2022/09/12 11:31:18;;;;;;;27.10;14.80;;;;;;;16.17;43.30;99987.94;5110208;28;20073;-55
2022/09/12 11:33:49;;;;;;;25.38;14.30;;;;;;;16.04;44.00;99980.25;5110758;28;20059;-56
2022/09/12 11:36:50;;;;;;;25.70;14.20;;;;;;;16.25;43.88;99978.19;5111698;28;20031;-55
2022/09/12 11:39:22;;;;;;;25.13;14.30;;;;;;;16.36;43.60;99980.63;5111954;28;20032;-56
2022/09/12 11:41:56;;;;;;;24.65;15.13;;;;;;;16.43;43.10;99976.31;5112594;28;20475;-57
2022/09/12 11:44:27;;;;;;;27.10;14.75;;;;;;;16.40;43.17;99982.03;5112106;27;20058;-57